Time;durP1;ratioP1;P1;durP2;ratioP2;P2;SDS_P1;SDS_P2;PMS_P1;PMS_P2;Temp;Humidity;BMP_temperature;BMP_pressure;BME280_temperature;BME280_humidity;BME280_pressure;Samples;Min_cycle;Max_cycle;Signal;HPM_P1;HPM_P2
2020/12/11 00:00:15;;;;;;;;;;;;;;;5.97;100.00;97958.50;4862740;29;19928;-75
2020/12/11 00:02:41;;;;;;;;;;;;;;;5.95;100.00;97942.28;4863225;29;20024;-75
2020/12/11 00:05:08;;;;;;;;;;;;;;;5.97;100.00;97926.00;4846325;29;19928;-75
2020/12/11 00:07:37;;;;;;;;;;;;;;;5.96;100.00;97918.91;4862881;29;19935;-75
2020/12/11 00:10:05;;;;;;;;;;;;;;;5.95;100.00;97905.44;4861855;29;20339;-75
2020/12/11 00:12:31;;;;;;;;;;;;;;;5.85;100.00;97926.59;4862522;29;20020;-75
2020/12/11 00:14:58;;;;;;;;;;;;;;;5.75;100.00;97926.72;4861514;29;19932;-75
2020/12/11 00:17:26;;;;;;;;;;;;;;;5.77;100.00;97905.69;4862652;29;19928;-75
2020/12/11 00:19:53;;;;;;;;;;;;;;;5.75;100.00;97899.78;4846020;29;20455;-75
2020/12/11 00:22:20;;;;;;;;;;;;;;;5.66;100.00;97884.88;4862529;29;19962;-75
2020/12/11 00:24:47;;;;;;;;;;;;;;;5.67;100.00;97889.22;4846124;29;20007;-75
2020/12/11 00:27:13;;;;;;;;;;;;;;;5.80;100.00;97870.81;4862452;29;19932;-75
2020/12/11 00:29:40;;;;;;;;;;;;;;;5.72;100.00;97880.44;4862298;29;19929;-75
2020/12/11 00:32:07;;;;;;;;;;;;;;;5.68;100.00;97857.56;4862335;29;19936;-75
2020/12/11 00:34:34;;;;;;;;;;;;;;;5.70;100.00;97844.84;4862274;29;19939;-75
2020/12/11 00:37:01;;;;;;;;;;;;;;;5.60;100.00;97838.25;4861977;29;20396;-75
2020/12/11 00:39:27;;;;;;;;;;;;;;;5.56;100.00;97825.66;4862161;29;20510;-75
2020/12/11 00:41:57;;;;;;;;;;;;;;;5.62;100.00;97812.88;4861996;29;19939;-75
2020/12/11 00:44:23;;;;;;;;;;;;;;;5.66;100.00;97810.84;4861064;29;19981;-75
2020/12/11 00:46:50;;;;;;;;;;;;;;;5.67;100.00;97806.09;4861872;29;20363;-75
2020/12/11 00:49:16;;;;;;;;;;;;;;;5.66;100.00;97790.66;4861861;29;19977;-75
2020/12/11 00:51:43;;;;;;;;;;;;;;;5.65;100.00;97764.94;4860755;29;19932;-75
2020/12/11 00:54:10;;;;;;;;;;;;;;;5.65;100.00;97742.00;4845600;29;19984;-75
2020/12/11 00:56:37;;;;;;;;;;;;;;;5.59;100.00;97744.47;4845290;29;19951;-75
2020/12/11 00:59:04;;;;;;;;;;;;;;;5.59;100.00;97734.16;4861786;29;19932;-75
2020/12/11 01:01:35;;;;;;;;;;;;;;;5.63;100.00;97725.00;4845337;29;19928;-75
2020/12/11 01:04:02;;;;;;;;;;;;;;;5.65;100.00;97719.84;4860569;29;20028;-75
2020/12/11 01:06:28;;;;;;;;;;;;;;;5.57;100.00;97706.09;4861801;29;19932;-75
2020/12/11 01:08:55;;;;;;;;;;;;;;;5.70;100.00;97688.84;4861833;29;19963;-75
2020/12/11 01:11:21;;;;;;;;;;;;;;;5.77;100.00;97677.66;4861360;29;19932;-75
2020/12/11 01:13:48;;;;;;;;;;;;;;;5.72;100.00;97681.69;4861819;29;19935;-75
2020/12/11 01:16:14;;;;;;;;;;;;;;;5.80;100.00;97654.63;4861524;29;19932;-75
2020/12/11 01:18:41;;;;;;;;;;;;;;;5.75;100.00;97641.25;4845092;29;19950;-75
2020/12/11 01:21:07;;;;;;;;;;;;;;;5.89;100.00;97636.25;4861517;29;20009;-75
2020/12/11 01:23:34;;;;;;;;;;;;;;;5.93;100.00;97630.63;4861400;29;20357;-75
2020/12/11 01:26:00;;;;;;;;;;;;;;;5.94;100.00;97612.81;4861290;29;20349;-75
2020/12/11 01:28:27;;;;;;;;;;;;;;;5.82;100.00;97602.34;4861356;29;20533;-75
2020/12/11 01:30:53;;;;;;;;;;;;;;;5.93;100.00;97602.91;4844816;29;19939;-75
2020/12/11 01:33:20;;;;;;;;;;;;;;;5.97;100.00;97578.69;4844826;29;20395;-75
2020/12/11 01:35:46;;;;;;;;;;;;;;;5.98;100.00;97572.72;4844539;29;20446;-75
2020/12/11 01:38:13;;;;;;;;;;;;;;;6.00;100.00;97569.50;4859775;29;20292;-75
2020/12/11 01:40:40;;;;;;;;;;;;;;;5.95;100.00;97567.22;4861032;29;19928;-75
2020/12/11 01:43:07;;;;;;;;;;;;;;;5.96;100.00;97538.28;4860011;29;20334;-75
2020/12/11 01:45:33;;;;;;;;;;;;;;;5.99;100.00;97529.13;4860952;29;20337;-76
2020/12/11 01:48:00;;;;;;;;;;;;;;;6.02;100.00;97533.81;4843930;29;20282;-75
2020/12/11 01:50:26;;;;;;;;;;;;;;;5.91;100.00;97536.81;4861434;29;20278;-75
2020/12/11 01:52:53;;;;;;;;;;;;;;;5.97;100.00;97515.69;4860969;29;20312;-75
2020/12/11 01:55:19;;;;;;;;;;;;;;;5.98;100.00;97488.75;4859635;29;19929;-75
2020/12/11 01:58:00;;;;;;;;;;;;;;;5.99;100.00;97473.66;4844174;29;19928;-75
2020/12/11 02:00:27;;;;;;;;;;;;;;;6.06;100.00;97456.88;4860929;29;19958;-75
2020/12/11 02:03:04;;;;;;;;;;;;;;;6.04;100.00;97449.00;4861063;29;19932;-75
2020/12/11 02:05:31;;;;;;;;;;;;;;;6.15;100.00;97448.75;4860811;29;19928;-75
2020/12/11 02:07:58;;;;;;;;;;;;;;;6.13;100.00;97423.44;4860918;29;19935;-75
2020/12/11 02:10:24;;;;;;;;;;;;;;;6.08;100.00;97410.09;4844054;29;19967;-75
2020/12/11 02:12:51;;;;;;;;;;;;;;;6.01;100.00;97399.19;4860632;29;20289;-75
2020/12/11 02:15:17;;;;;;;;;;;;;;;6.09;100.00;97383.94;4859408;29;19928;-74
2020/12/11 02:17:44;;;;;;;;;;;;;;;6.06;100.00;97376.47;4860595;29;20300;-75
2020/12/11 02:20:10;;;;;;;;;;;;;;;6.06;100.00;97363.38;4844192;29;20377;-74
2020/12/11 02:22:37;;;;;;;;;;;;;;;6.10;100.00;97350.22;4860707;29;19928;-75
2020/12/11 02:25:04;;;;;;;;;;;;;;;6.20;100.00;97340.84;4860543;29;19932;-75
2020/12/11 02:27:30;;;;;;;;;;;;;;;6.21;100.00;97336.09;4844230;29;20369;-75
2020/12/11 02:29:56;;;;;;;;;;;;;;;6.18;100.00;97326.63;4860691;29;19928;-75
2020/12/11 02:32:23;;;;;;;;;;;;;;;6.06;100.00;97307.94;4860520;29;19939;-75
2020/12/11 02:34:49;;;;;;;;;;;;;;;6.12;100.00;97300.66;4860731;29;19929;-75
2020/12/11 02:37:16;;;;;;;;;;;;;;;6.18;100.00;97287.06;4843631;29;20308;-75
2020/12/11 02:39:42;;;;;;;;;;;;;;;6.10;100.00;97285.66;4860473;29;19928;-75
2020/12/11 02:42:09;;;;;;;;;;;;;;;6.07;100.00;97281.00;4860553;29;19935;-74
2020/12/11 02:44:36;;;;;;;;;;;;;;;6.10;100.00;97280.13;4843834;29;20365;-74
2020/12/11 02:47:02;;;;;;;;;;;;;;;6.13;100.00;97273.72;4860536;29;19935;-74
2020/12/11 02:49:29;;;;;;;;;;;;;;;6.14;100.00;97272.47;4844149;29;19981;-75
2020/12/11 02:51:55;;;;;;;;;;;;;;;6.21;100.00;97264.00;4860476;29;19935;-75
2020/12/11 02:54:22;;;;;;;;;;;;;;;6.21;100.00;97258.44;4860350;29;19928;-75
2020/12/11 02:56:48;;;;;;;;;;;;;;;6.19;100.00;97249.78;4843815;29;20381;-75
2020/12/11 02:59:15;;;;;;;;;;;;;;;6.26;100.00;97241.25;4859294;29;19934;-75
2020/12/11 03:01:41;;;;;;;;;;;;;;;6.29;100.00;97234.81;4863898;29;19939;-75
2020/12/11 03:04:08;;;;;;;;;;;;;;;6.40;100.00;97227.78;4862982;29;19934;-75
2020/12/11 03:06:35;;;;;;;;;;;;;;;6.12;100.00;97225.03;4863828;29;20388;-75
2020/12/11 03:09:02;;;;;;;;;;;;;;;6.20;100.00;97218.03;4862764;29;20411;-75
2020/12/11 03:11:29;;;;;;;;;;;;;;;6.21;100.00;97200.97;4862480;29;19929;-75
2020/12/11 03:13:55;;;;;;;;;;;;;;;6.20;100.00;97188.31;4863714;29;20407;-75
2020/12/11 03:16:21;;;;;;;;;;;;;;;6.10;100.00;97185.84;4863666;29;19928;-75
2020/12/11 03:18:48;;;;;;;;;;;;;;;6.03;100.00;97180.53;4847328;29;20015;-75
2020/12/11 03:21:16;;;;;;;;;;;;;;;6.13;100.00;97179.44;4863415;29;19977;-75
2020/12/11 03:23:42;;;;;;;;;;;;;;;6.07;100.00;97162.56;4863563;29;19943;-75
2020/12/11 03:26:09;;;;;;;;;;;;;;;6.18;100.00;97149.16;4863643;29;19935;-75
2020/12/11 03:28:35;;;;;;;;;;;;;;;6.16;100.00;97146.06;4863860;29;19932;-75
2020/12/11 03:31:02;;;;;;;;;;;;;;;6.07;100.00;97128.50;4847004;29;20278;-75
2020/12/11 03:33:29;;;;;;;;;;;;;;;6.07;100.00;97120.19;4863443;29;19928;-75
2020/12/11 03:35:56;;;;;;;;;;;;;;;6.07;100.00;97114.66;4863258;29;19928;-75
2020/12/11 03:38:22;;;;;;;;;;;;;;;5.99;100.00;97107.75;4863318;29;19971;-75
2020/12/11 03:40:49;;;;;;;;;;;;;;;6.05;100.00;97084.59;4863582;29;19928;-75
2020/12/11 03:43:16;;;;;;;;;;;;;;;6.11;100.00;97082.06;4863152;29;19932;-75
2020/12/11 03:45:43;;;;;;;;;;;;;;;6.07;100.00;97073.06;4862994;29;19935;-75
2020/12/11 03:48:10;;;;;;;;;;;;;;;6.06;100.00;97065.97;4862081;29;20399;-75
2020/12/11 03:50:36;;;;;;;;;;;;;;;6.11;100.00;97060.66;4862976;29;20014;-75
2020/12/11 03:53:03;;;;;;;;;;;;;;;6.05;100.00;97048.56;4863009;29;19976;-75
2020/12/11 03:55:31;;;;;;;;;;;;;;;6.08;100.00;97046.88;4862951;29;19951;-75
2020/12/11 03:57:57;;;;;;;;;;;;;;;6.03;100.00;97036.38;4862831;29;19932;-75
2020/12/11 04:00:24;;;;;;;;;;;;;;;6.02;100.00;97029.25;4862846;29;19932;-75
2020/12/11 04:02:50;;;;;;;;;;;;;;;6.04;100.00;97022.06;4846588;29;19928;-75
2020/12/11 04:05:17;;;;;;;;;;;;;;;6.03;100.00;96998.31;4862666;29;19951;-75
2020/12/11 04:07:44;;;;;;;;;;;;;;;6.06;100.00;96985.59;4862828;29;19935;-75
2020/12/11 04:10:10;;;;;;;;;;;;;;;6.01;100.00;96975.03;4845818;29;19928;-75
2020/12/11 04:12:38;;;;;;;;;;;;;;;6.00;100.00;96977.03;4846102;29;19929;-75
2020/12/11 04:15:04;;;;;;;;;;;;;;;5.97;100.00;96966.06;4861538;29;20315;-75
2020/12/11 04:17:30;;;;;;;;;;;;;;;5.91;100.00;96956.75;4862520;29;19928;-75
2020/12/11 04:19:57;;;;;;;;;;;;;;;5.89;100.00;96948.09;4861311;29;20027;-75
2020/12/11 04:22:26;;;;;;;;;;;;;;;5.89;100.00;96943.34;4862432;29;20270;-75
2020/12/11 04:24:52;;;;;;;;;;;;;;;5.90;100.00;96933.00;4862387;29;20395;-75
2020/12/11 04:27:19;;;;;;;;;;;;;;;5.96;100.00;96920.16;4862453;29;19935;-75
2020/12/11 04:29:46;;;;;;;;;;;;;;;5.95;100.00;96910.28;4845913;29;19984;-75
2020/12/11 04:32:13;;;;;;;;;;;;;;;6.02;100.00;96902.53;4862342;29;19928;-75
2020/12/11 04:34:39;;;;;;;;;;;;;;;5.98;100.00;96890.78;4861055;29;19932;-75
2020/12/11 04:37:06;;;;;;;;;;;;;;;5.97;100.00;96883.69;4862229;29;19928;-75
2020/12/11 04:39:33;;;;;;;;;;;;;;;5.97;100.00;96880.91;4845757;29;20056;-75
2020/12/11 04:42:01;;;;;;;;;;;;;;;6.02;100.00;96871.25;4862380;29;20026;-75
2020/12/11 04:44:28;;;;;;;;;;;;;;;6.04;100.00;96854.97;4862142;29;20027;-75
2020/12/11 04:46:55;;;;;;;;;;;;;;;6.05;100.00;96856.50;4862031;29;19935;-75
2020/12/11 04:49:21;;;;;;;;;;;;;;;6.03;100.00;96831.25;4845498;29;19928;-75
2020/12/11 04:51:49;;;;;;;;;;;;;;;6.01;100.00;96820.59;4862061;29;19928;-75
2020/12/11 04:54:17;;;;;;;;;;;;;;;6.03;100.00;96818.13;4861889;29;19928;-75
2020/12/11 04:56:46;;;;;;;;;;;;;;;6.07;100.00;96804.16;4861916;29;20077;-75
2020/12/11 04:59:13;;;;;;;;;;;;;;;6.10;100.00;96790.19;4861837;29;19934;-75
2020/12/11 05:01:39;;;;;;;;;;;;;;;6.08;100.00;96778.00;4861948;29;19932;-75
2020/12/11 05:04:06;;;;;;;;;;;;;;;6.09;100.00;96768.47;4861661;29;20019;-75
2020/12/11 05:06:32;;;;;;;;;;;;;;;6.09;100.00;96757.38;4861915;29;19935;-75
2020/12/11 05:09:12;;;;;;;;;;;;;;;6.09;100.00;96747.03;4861787;29;20392;-75
2020/12/11 05:11:40;;;;;;;;;;;;;;;6.07;100.00;96743.19;4861802;29;19928;-75
2020/12/11 05:14:20;;;;;;;;;;;;;;;6.15;100.00;96734.16;4845140;29;19928;-75
2020/12/11 05:16:57;;;;;;;;;;;;;;;6.18;100.00;96721.41;4861472;29;20440;-75
2020/12/11 05:19:26;;;;;;;;;;;;;;;6.18;100.00;96710.31;4860801;29;20357;-75
2020/12/11 05:21:53;;;;;;;;;;;;;;;6.18;100.00;96693.69;4861222;29;20084;-75
2020/12/11 05:24:19;;;;;;;;;;;;;;;6.21;100.00;96684.47;4860825;29;19934;-75
2020/12/11 05:26:46;;;;;;;;;;;;;;;6.28;100.00;96671.13;4861579;29;19936;-75
2020/12/11 05:29:13;;;;;;;;;;;;;;;6.39;100.00;96670.72;4861475;29;19928;-75
2020/12/11 05:31:44;;;;;;;;;;;;;;;6.44;100.00;96662.59;4861087;29;19935;-75
2020/12/11 05:34:14;;;;;;;;;;;;;;;6.50;100.00;96655.22;4861391;29;19935;-75
2020/12/11 05:36:42;;;;;;;;;;;;;;;6.41;100.00;96673.78;4861270;29;19936;-75
2020/12/11 05:39:08;;;;;;;;;;;;;;;6.32;100.00;96666.22;4859815;29;19952;-75
2020/12/11 05:41:35;;;;;;;;;;;;;;;6.49;100.00;96669.53;4842795;29;19935;-75
2020/12/11 05:44:02;;;;;;;;;;;;;;;6.48;100.00;96673.56;4860996;29;19947;-75
2020/12/11 05:46:31;;;;;;;;;;;;;;;6.43;100.00;96665.81;4844374;29;19936;-75
2020/12/11 05:48:59;;;;;;;;;;;;;;;6.32;100.00;96651.56;4861080;29;19929;-75
2020/12/11 05:51:35;;;;;;;;;;;;;;;6.32;100.00;96637.69;4860794;29;20384;-75
2020/12/11 05:54:04;;;;;;;;;;;;;;;6.34;100.00;96632.47;4861067;29;19948;-75
2020/12/11 05:56:31;;;;;;;;;;;;;;;6.36;100.00;96628.00;4860904;29;19928;-75
2020/12/11 05:58:58;;;;;;;;;;;;;;;6.33;100.00;96619.84;4860858;29;19945;-74
2020/12/11 06:01:24;;;;;;;;;;;;;;;6.41;100.00;96610.78;4860782;29;20392;-75
2020/12/11 06:03:51;;;;;;;;;;;;;;;6.45;100.00;96611.41;4860989;29;19931;-75
2020/12/11 06:06:18;;;;;;;;;;;;;;;6.50;100.00;96607.28;4860575;29;20042;-75
2020/12/11 06:08:44;;;;;;;;;;;;;;;6.33;100.00;96603.22;4844336;29;20032;-75
2020/12/11 06:11:20;;;;;;;;;;;;;;;6.39;100.00;96596.59;4860782;29;19935;-75
2020/12/11 06:13:55;;;;;;;;;;;;;;;6.46;100.00;96598.31;4860751;29;19928;-75
2020/12/11 06:16:23;;;;;;;;;;;;;;;6.46;100.00;96595.56;4860518;29;20333;-75
2020/12/11 06:18:58;;;;;;;;;;;;;;;6.42;100.00;96587.38;4859561;29;19928;-75
2020/12/11 06:21:26;;;;;;;;;;;;;;;6.46;100.00;96592.78;4859559;29;19939;-75
2020/12/11 06:23:53;;;;;;;;;;;;;;;6.49;100.00;96591.88;4860573;29;19928;-75
2020/12/11 06:26:20;;;;;;;;;;;;;;;6.52;100.00;96596.50;4860771;29;20044;-75
2020/12/11 06:28:50;;;;;;;;;;;;;;;6.54;100.00;96594.06;4860708;29;19985;-75
2020/12/11 06:31:17;;;;;;;;;;;;;;;6.47;100.00;96580.44;4860442;29;19929;-75
2020/12/11 06:33:45;;;;;;;;;;;;;;;6.55;100.00;96578.94;4860037;29;20378;-75
2020/12/11 06:36:12;;;;;;;;;;;;;;;6.50;100.00;96577.53;4847917;29;20089;-75
2020/12/11 06:38:38;;;;;;;;;;;;;;;6.47;100.00;96569.34;4864535;29;20375;-75
2020/12/11 06:41:05;;;;;;;;;;;;;;;6.49;100.00;96572.47;4864383;29;20308;-75
2020/12/11 06:43:38;;;;;;;;;;;;;;;6.50;100.00;96562.91;4864284;29;20404;-75
2020/12/11 06:46:12;;;;;;;;;;;;;;;6.51;100.00;96561.69;4864051;29;19928;-75
2020/12/11 06:48:57;;;;;;;;;;;;;;;6.51;100.00;96564.47;4864274;29;19928;-75
2020/12/11 06:51:23;;;;;;;;;;;;;;;6.53;100.00;96559.22;4860313;29;19935;-74
2020/12/11 06:53:50;;;;;;;;;;;;;;;6.55;100.00;96562.31;4847031;29;19939;-76
2020/12/11 06:56:35;;;;;;;;;;;;;;;6.59;100.00;96549.84;4866873;29;19956;-75
2020/12/11 06:59:23;;;;;;;;;;;;;;;6.60;100.00;96545.84;4858043;29;20250;-76
2020/12/11 07:01:52;;;;;;;;;;;;;;;6.70;100.00;96552.19;4877801;29;19964;-76
2020/12/11 07:04:20;;;;;;;;;;;;;;;6.62;100.00;96553.72;4876575;29;20012;-75
2020/12/11 07:06:50;;;;;;;;;;;;;;;6.59;100.00;96543.50;4876850;29;20030;-78
2020/12/11 07:09:17;;;;;;;;;;;;;;;6.62;100.00;96540.59;4870424;29;19992;-76
2020/12/11 07:11:44;;;;;;;;;;;;;;;6.61;100.00;96535.50;4858791;29;20322;-74
2020/12/11 07:14:10;;;;;;;;;;;;;;;6.67;100.00;96530.91;4858006;29;19935;-75
2020/12/11 07:16:38;;;;;;;;;;;;;;;6.65;100.00;96533.38;4858953;29;20349;-74
2020/12/11 07:19:05;;;;;;;;;;;;;;;6.59;100.00;96526.88;4857425;29;20361;-75
2020/12/11 07:21:36;;;;;;;;;;;;;;;6.55;100.00;96529.03;4858284;29;19934;-75
2020/12/11 07:24:04;;;;;;;;;;;;;;;6.54;100.00;96533.03;4858501;29;19954;-74
2020/12/11 07:26:31;;;;;;;;;;;;;;;6.52;100.00;96532.72;4858250;29;19935;-74
2020/12/11 07:29:04;;;;;;;;;;;;;;;6.52;100.00;96535.47;4857523;29;19928;-74
2020/12/11 07:31:41;;;;;;;;;;;;;;;6.52;100.00;96532.72;4860884;29;20370;-74
2020/12/11 07:34:11;;;;;;;;;;;;;;;6.62;100.00;96528.75;4844918;29;20328;-74
2020/12/11 07:36:38;;;;;;;;;;;;;;;6.55;100.00;96529.03;4862124;29;19928;-75
2020/12/11 07:39:14;;;;;;;;;;;;;;;6.56;100.00;96531.34;4846550;29;19951;-74
2020/12/11 07:41:42;;;;;;;;;;;;;;;6.59;100.00;96526.88;4863225;29;19928;-74
2020/12/11 07:44:09;;;;;;;;;;;;;;;6.63;100.00;96527.50;4863544;29;19935;-74
2020/12/11 07:46:40;;;;;;;;;;;;;;;6.59;100.00;96544.28;4861154;29;20264;-74
2020/12/11 07:49:06;;;;;;;;;;;;;;;6.57;100.00;96570.97;4846804;29;20060;-74
2020/12/11 07:51:42;;;;;;;;;;;;;;;6.56;100.00;96591.59;4862046;29;20029;-74
2020/12/11 07:54:09;;;;;;;;;;;;;;;6.56;100.00;96591.59;4863179;29;19928;-74
2020/12/11 07:56:36;;;;;;;;;;;;;;;6.58;100.00;96595.47;4845986;29;19928;-74
2020/12/11 07:59:13;;;;;;;;;;;;;;;6.59;100.00;96605.31;4862969;29;19951;-74
2020/12/11 08:01:40;;;;;;;;;;;;;;;6.60;100.00;96606.91;4861719;29;19935;-74
2020/12/11 08:04:06;;;;;;;;;;;;;;;6.63;100.00;96610.75;4862859;29;20316;-74
2020/12/11 08:06:33;;;;;;;;;;;;;;;6.63;100.00;96613.53;4862886;29;19928;-74
2020/12/11 08:09:12;;;;;;;;;;;;;;;6.64;100.00;96626.16;4862851;29;19928;-74
2020/12/11 08:11:43;;;;;;;;;;;;;;;6.68;100.00;96615.72;4862632;29;19971;-75
2020/12/11 08:14:10;;;;;;;;;;;;;;;6.72;100.00;96627.44;4846474;29;20362;-74
2020/12/11 08:16:37;;;;;;;;;;;;;;;6.75;100.00;96623.75;4846124;29;19928;-74
2020/12/11 08:19:08;;;;;;;;;;;;;;;6.72;100.00;96616.34;4846295;29;19933;-74
2020/12/11 08:21:34;;;;;;;;;;;;;;;6.74;100.00;96613.88;4862746;29;20316;-74
2020/12/11 08:24:01;;;;;;;;;;;;;;;6.73;100.00;96612.31;4861644;29;19951;-74
2020/12/11 08:26:38;;;;;;;;;;;;;;;6.75;100.00;96620.97;4862768;29;19929;-74
2020/12/11 08:29:08;;;;;;;;;;;;;;;6.78;100.00;96620.84;4846050;29;19932;-75
2020/12/11 08:31:39;;;;;;;;;;;;;;;6.84;100.00;96621.00;4845890;29;19938;-76
2020/12/11 08:34:09;;;;;;;;;;;;;;;6.87;100.00;96612.53;4862538;29;19967;-76
2020/12/11 08:36:45;;;;;;;;;;;;;;;6.86;100.00;96613.00;4862447;29;19928;-76
2020/12/11 08:39:19;;;;;;;;;;;;;;;6.84;100.00;96627.34;4862213;29;19928;-76
2020/12/11 08:50:20;;;;;;;;;;;;;;;7.03;100.00;96611.50;4861944;29;20376;-74
2020/12/11 08:52:47;;;;;;;;;;;;;;;7.06;100.00;96607.78;4845360;29;19928;-74
2020/12/11 08:55:14;;;;;;;;;;;;;;;7.10;100.00;96608.44;4862495;29;19928;-75
2020/12/11 08:57:40;;;;;;;;;;;;;;;7.03;100.00;96603.16;4862650;29;19936;-74
2020/12/11 09:00:07;;;;;;;;;;;;;;;7.06;100.00;96591.91;4862171;29;19935;-74
2020/12/11 09:02:38;;;;;;;;;;;;;;;7.13;100.00;96591.63;4862923;29;20242;-74
2020/12/11 09:05:05;;;;;;;;;;;;;;;7.14;100.00;96595.19;4861566;29;19948;-74
2020/12/11 09:07:36;;;;;;;;;;;;;;;7.13;100.00;96582.53;4862431;29;19936;-74
2020/12/11 09:10:04;;;;;;;;;;;;;;;7.15;100.00;96588.38;4862176;29;19928;-74
2020/12/11 09:12:30;;;;;;;;;;;;;;;7.15;100.00;96582.81;4845907;29;20414;-74
2020/12/11 09:14:57;;;;;;;;;;;;;;;7.22;100.00;96577.00;4862292;29;20384;-74
2020/12/11 09:17:23;;;;;;;;;;;;;;;7.07;100.00;96587.91;4845615;29;19928;-74
2020/12/11 09:19:50;;;;;;;;;;;;;;;7.04;100.00;96593.63;4845829;29;20363;-74
2020/12/11 09:22:17;;;;;;;;;;;;;;;7.13;100.00;96585.31;4862069;29;19928;-74
2020/12/11 09:24:43;;;;;;;;;;;;;;;7.11;100.00;96579.44;4861727;29;20380;-74
2020/12/11 09:27:12;;;;;;;;;;;;;;;7.05;100.00;96578.50;4862088;29;20380;-74
2020/12/11 09:29:42;;;;;;;;;;;;;;;7.07;100.00;96581.59;4861723;29;19984;-74
2020/12/11 09:32:15;;;;;;;;;;;;;;;7.09;100.00;96574.34;4861646;29;19935;-74
2020/12/11 09:34:42;;;;;;;;;;;;;;;7.16;100.00;96578.84;4845023;29;20385;-74
2020/12/11 09:37:08;;;;;;;;;;;;;;;7.21;100.00;96576.22;4862083;29;19928;-74
2020/12/11 09:39:35;;;;;;;;;;;;;;;7.27;100.00;96573.59;4845077;29;20293;-74
2020/12/11 09:42:34;;;;;;;;;;;;;;;7.30;100.00;96570.66;4861799;29;20513;-73
2020/12/11 09:45:16;;;;;;;;;;;;;;;7.40;100.00;96571.47;4861345;29;20023;-74
2020/12/11 09:47:49;;;;;;;;;;;;;;;7.34;100.00;96559.41;4845018;29;19929;-74
2020/12/11 09:53:01;;;;;;;;;;;;;;;7.35;100.00;96563.72;4845032;29;19928;-74
2020/12/11 09:55:37;;;;;;;;;;;;;;;7.29;100.00;96565.56;4845198;29;19963;-74
2020/12/11 09:58:07;;;;;;;;;;;;;;;7.28;100.00;96559.25;4859108;29;20412;-74
2020/12/11 10:00:34;;;;;;;;;;;;;;;7.31;100.00;96552.00;4860311;29;20351;-74
2020/12/11 10:03:07;;;;;;;;;;;;;;;7.38;100.00;96560.03;4861550;29;19928;-74
2020/12/11 10:05:33;;;;;;;;;;;;;;;7.45;100.00;96559.75;4861587;29;19929;-74
2020/12/11 10:08:00;;;;;;;;;;;;;;;7.59;100.00;96550.00;4861244;29;20015;-74
2020/12/11 10:10:27;;;;;;;;;;;;;;;7.67;100.00;96545.66;4860060;29;19928;-74
2020/12/11 10:12:54;;;;;;;;;;;;;;;7.76;100.00;96543.66;4859659;29;20288;-74
2020/12/11 10:15:22;;;;;;;;;;;;;;;7.65;100.00;96543.34;4877402;29;19970;-74
2020/12/11 10:17:49;;;;;;;;;;;;;;;7.52;100.00;96528.88;4879918;29;19975;-73
2020/12/11 10:20:20;;;;;;;;;;;;;;;7.45;100.00;96539.50;4879965;29;19934;-74
2020/12/11 10:22:48;;;;;;;;;;;;;;;7.36;100.00;96537.50;4878643;29;19984;-73
2020/12/11 10:25:17;;;;;;;;;;;;;;;7.34;100.00;96529.66;4863301;29;20027;-73
2020/12/11 10:27:44;;;;;;;;;;;;;;;7.39;100.00;96534.56;4879807;29;19935;-73
2020/12/11 10:30:11;;;;;;;;;;;;;;;7.40;100.00;96527.00;4879795;29;19928;-73
2020/12/11 10:32:37;;;;;;;;;;;;;;;7.43;100.00;96519.75;4862438;29;20024;-74
2020/12/11 10:35:05;;;;;;;;;;;;;;;7.60;100.00;96521.75;4859914;29;19928;-74
2020/12/11 10:37:31;;;;;;;;;;;;;;;7.63;100.00;96512.50;4860079;29;19928;-74
2020/12/11 10:39:58;;;;;;;;;;;;;;;7.80;100.00;96513.69;4861255;29;19928;-74
2020/12/11 10:42:24;;;;;;;;;;;;;;;7.85;100.00;96515.84;4844407;29;19939;-74
2020/12/11 10:44:51;;;;;;;;;;;;;;;7.94;100.00;96510.28;4844721;29;19935;-74
2020/12/11 10:47:18;;;;;;;;;;;;;;;7.94;100.00;96503.94;4860821;29;19932;-74
2020/12/11 10:49:44;;;;;;;;;;;;;;;7.85;100.00;96501.94;4860031;29;19928;-74
2020/12/11 10:52:11;;;;;;;;;;;;;;;7.79;100.00;96503.81;4860875;29;19935;-74
2020/12/11 10:54:37;;;;;;;;;;;;;;;7.70;100.00;96495.50;4861312;29;19928;-73
2020/12/11 10:57:04;;;;;;;;;;;;;;;7.64;100.00;96491.81;4860850;29;20304;-73
2020/12/11 10:59:30;;;;;;;;;;;;;;;7.64;100.00;96477.91;4860942;29;20016;-73
2020/12/11 11:01:57;;;;;;;;;;;;;;;7.67;100.00;96485.31;4859705;29;19928;-73
2020/12/11 11:04:24;;;;;;;;;;;;;;;7.71;100.00;96491.47;4844545;29;20352;-73
2020/12/11 11:06:59;;;;;;;;;;;;;;;7.78;100.00;96485.59;4860626;29;19935;-73
2020/12/11 11:15:24;;;;;;;;;;;;;;;7.99;100.00;96484.63;4842221;29;19975;-73
2020/12/11 11:26:14;;;;;;;;;;;;;;;8.04;100.00;96472.84;4806252;29;19933;-73
2020/12/11 11:28:41;;;;;;;;;;;;;;;8.02;100.00;96472.56;4806517;29;19929;-73
2020/12/11 11:31:13;;;;;;;;;;;;;;;8.07;100.00;96463.59;4806480;29;19952;-73
2020/12/11 11:33:39;;;;;;;;;;;;;;;8.17;100.00;96458.75;4806555;29;19929;-73
2020/12/11 11:36:06;;;;;;;;;;;;;;;8.33;100.00;96456.41;4806072;29;19933;-73
2020/12/11 11:38:32;;;;;;;;;;;;;;;8.48;100.00;96453.72;4806125;29;19929;-74
2020/12/11 11:40:59;;;;;;;;;;;;;;;8.68;100.00;96451.09;4806319;29;19929;-73
2020/12/11 11:46:31;;;;;;;;;;;;;;;8.73;100.00;96442.88;4755118;30;19930;-73
2020/12/11 11:48:58;;;;;;;;;;;;;;;8.54;100.00;96435.13;4755233;30;19929;-73
2020/12/11 11:51:35;;;;;;;;;;;;;;;8.43;100.00;96429.31;4770022;30;19952;-73
2020/12/11 11:54:02;;;;;;;;;;;;;;;8.46;100.00;96423.56;4770012;30;19999;-74
2020/12/11 11:56:28;;;;;;;;;;;;;;;8.72;100.00;96430.19;4770120;30;19933;-73
2020/12/11 11:58:55;;;;;;;;;;;;;;;8.77;100.00;96426.78;4755135;30;19937;-73
2020/12/11 12:01:21;;;;;;;;;;;;;;;8.77;100.00;96423.97;4784379;29;19929;-73
2020/12/11 12:03:48;;;;;;;;;;;;;;;8.85;98.75;96424.41;4805766;29;19971;-73
2020/12/11 12:06:20;;;;;;;;;;;;;;;9.04;96.24;96434.91;4805922;29;19972;-73
2020/12/11 12:08:47;;;;;;;;;;;;;;;9.15;94.70;96431.59;4805769;29;19945;-73
2020/12/11 12:11:13;;;;;;;;;;;;;;;9.12;95.04;96441.66;4790663;29;20002;-74
2020/12/11 12:13:40;;;;;;;;;;;;;;;9.11;94.77;96440.16;4805791;29;19929;-73
2020/12/11 12:16:07;;;;;;;;;;;;;;;9.06;95.12;96454.72;4791915;29;20390;-74
2020/12/11 12:18:37;;;;;;;;;;;;;;;8.97;96.20;96456.78;4862508;29;19935;-73
2020/12/11 12:21:11;;;;;;;;;;;;;;;8.74;99.13;96458.34;4862676;29;19935;-74
2020/12/11 12:29:19;;;;;;;;;;;;;;;8.34;100.00;96477.44;4823646;29;19929;-73
2020/12/11 12:31:52;;;;;;;;;;;;;;;8.29;100.00;96486.41;4822868;29;19937;-73
2020/12/11 12:44:48;;;;;;;;;;;;;;;8.43;100.00;96498.88;4808180;29;19929;-73
2020/12/11 12:47:14;;;;;;;;;;;;;;;8.44;100.00;96517.88;4807794;29;20382;-74
2020/12/11 12:49:41;;;;;;;;;;;;;;;8.46;100.00;96511.84;4823264;29;19984;-73
2020/12/11 12:52:07;;;;;;;;;;;;;;;8.58;100.00;96519.19;4807933;29;19935;-74
2020/12/11 12:54:34;;;;;;;;;;;;;;;8.50;100.00;96518.78;4823146;29;20017;-73
2020/12/11 12:57:06;;;;;;;;;;;;;;;8.55;100.00;96520.91;4823150;29;19928;-74
2020/12/11 13:02:26;;;;;;;;;;;;;;;8.69;100.00;96525.03;4826891;29;19936;-74
2020/12/11 13:05:06;;;;;;;;;;;;;;;8.57;100.00;96526.75;4830136;29;20083;-73
2020/12/11 13:07:33;;;;;;;;;;;;;;;8.61;100.00;96532.94;4861783;29;19934;-73
2020/12/11 13:10:00;;;;;;;;;;;;;;;8.54;100.00;96538.84;4861802;29;19935;-73
2020/12/11 13:12:27;;;;;;;;;;;;;;;8.46;100.00;96540.44;4861396;29;19935;-73
2020/12/11 13:14:53;;;;;;;;;;;;;;;8.43;100.00;96541.38;4845218;29;19928;-73
2020/12/11 13:17:20;;;;;;;;;;;;;;;8.35;100.00;96545.72;4861512;29;19928;-73
2020/12/11 13:19:47;;;;;;;;;;;;;;;8.37;100.00;96542.47;4845105;29;20031;-73
2020/12/11 13:27:31;;;;;;;;;;;;;;;8.67;100.00;96547.78;4861596;29;19928;-73
2020/12/11 13:29:58;;;;;;;;;;;;;;;8.98;100.00;96562.13;4861279;29;19928;-74
2020/12/11 13:32:28;;;;;;;;;;;;;;;9.16;100.00;96547.34;4844789;29;19971;-73
2020/12/11 13:34:56;;;;;;;;;;;;;;;9.28;100.00;96565.06;4845052;29;19936;-74
2020/12/11 13:37:23;;;;;;;;;;;;;;;9.22;100.00;96573.31;4861156;29;19978;-73
2020/12/11 13:39:49;;;;;;;;;;;;;;;9.30;100.00;96568.91;4861196;29;20005;-73
2020/12/11 13:42:16;;;;;;;;;;;;;;;9.41;100.00;96574.72;4861072;29;19928;-72
2020/12/11 13:44:43;;;;;;;;;;;;;;;9.45;100.00;96580.13;4860199;29;19977;-74